Time;durP1;ratioP1;P1;durP2;ratioP2;P2;SDS_P1;SDS_P2;PMS_P1;PMS_P2;Temp;Humidity;BMP_temperature;BMP_pressure;BME280_temperature;BME280_humidity;BME280_pressure;Samples;Min_cycle;Max_cycle;Signal;HPM_P1;HPM_P2
2023/07/01 00:01:26;;;;;;;4.50;1.75;;;22.00;93.90;;;;;;5042411;28;20200;-34
2023/07/01 00:03:56;;;;;;;4.18;1.92;;;22.10;93.90;;;;;;5043631;28;20539;-34
2023/07/01 00:06:26;;;;;;;3.92;1.95;;;22.10;93.90;;;;;;5043787;28;20227;-34
2023/07/01 00:08:55;;;;;;;4.63;2.08;;;22.10;93.90;;;;;;5041807;28;20247;-34
2023/07/01 00:11:23;;;;;;;3.65;1.80;;;22.10;93.90;;;;;;5041919;28;20204;-34
2023/07/01 00:13:50;;;;;;;3.90;1.77;;;22.00;93.90;;;;;;5043644;28;20765;-34
2023/07/01 00:16:20;;;;;;;3.58;1.90;;;22.00;93.90;;;;;;5041458;28;20208;-34
2023/07/01 00:18:50;;;;;;;2.95;1.83;;;22.00;93.90;;;;;;5043904;28;20574;-34
2023/07/01 00:21:17;;;;;;;3.85;1.80;;;22.00;94.20;;;;;;5043148;28;20197;-34
2023/07/01 00:23:49;;;;;;;2.58;1.60;;;22.00;93.90;;;;;;5024838;28;20944;-34
2023/07/01 00:26:22;;;;;;;4.45;2.08;;;22.00;94.00;;;;;;5041770;28;20306;-34
2023/07/01 00:28:49;;;;;;;3.78;1.92;;;21.90;93.90;;;;;;5041785;28;20262;-25
2023/07/01 00:31:16;;;;;;;4.70;1.77;;;22.00;94.00;;;;;;5043285;28;20196;-25
2023/07/01 00:33:44;;;;;;;4.10;2.05;;;22.00;94.00;;;;;;5041892;28;20618;-25
2023/07/01 00:36:13;;;;;;;2.88;1.95;;;22.00;94.00;;;;;;5041479;28;20716;-26
2023/07/01 00:38:43;;;;;;;5.22;2.33;;;22.00;94.10;;;;;;5043337;28;20287;-25
2023/07/01 00:41:14;;;;;;;4.22;1.95;;;22.00;94.10;;;;;;5041922;28;20214;-26
2023/07/01 00:43:42;;;;;;;5.65;2.63;;;22.00;94.10;;;;;;5041249;28;20506;-26
2023/07/01 00:46:12;;;;;;;3.70;2.10;;;22.00;94.10;;;;;;5057980;28;20211;-25
2023/07/01 00:48:42;;;;;;;3.60;2.05;;;22.00;94.10;;;;;;5074875;28;20305;-26
2023/07/01 00:51:10;;;;;;;3.67;2.10;;;22.00;94.10;;;;;;5041097;28;20201;-26
2023/07/01 00:53:40;;;;;;;2.60;2.00;;;22.00;94.10;;;;;;5043166;28;20200;-27
2023/07/01 00:56:08;;;;;;;5.85;2.25;;;22.00;94.20;;;;;;5057853;28;20200;-25
2023/07/01 00:58:35;;;;;;;4.75;2.10;;;22.00;94.20;;;;;;5042998;28;20205;-25
2023/07/01 01:01:08;;;;;;;3.65;2.10;;;22.00;94.20;;;;;;5043248;28;20239;-25
2023/07/01 01:04:00;;;;;;;4.65;1.95;;;22.00;94.20;;;;;;5041097;28;20215;-25
2023/07/01 01:06:54;;;;;;;4.80;2.30;;;22.00;94.40;;;;;;5043140;28;20208;-25
2023/07/01 01:09:51;;;;;;;4.30;2.30;;;22.00;94.40;;;;;;5043074;28;20212;-25
2023/07/01 01:12:23;;;;;;;3.88;2.17;;;22.00;94.50;;;;;;5042466;28;20295;-25
2023/07/01 01:14:54;;;;;;;4.57;2.33;;;22.00;94.40;;;;;;5042956;28;20192;-26
2023/07/01 01:17:24;;;;;;;5.90;2.40;;;21.90;94.50;;;;;;5057471;28;20204;-25
2023/07/01 01:19:54;;;;;;;4.15;2.20;;;21.90;94.60;;;;;;5041004;28;20218;-25
2023/07/01 01:22:26;;;;;;;4.45;2.35;;;21.90;94.70;;;;;;5040941;28;20343;-25
2023/07/01 01:25:05;;;;;;;7.38;2.47;;;21.80;94.60;;;;;;5040948;28;20565;-25
2023/07/01 01:27:40;;;;;;;4.20;2.28;;;21.80;94.60;;;;;;5041166;28;20212;-25
2023/07/01 01:30:10;;;;;;;3.80;2.10;;;21.80;94.70;;;;;;5057800;28;20739;-25
2023/07/01 01:32:38;;;;;;;3.95;2.30;;;21.80;94.60;;;;;;5058676;28;20553;-25
2023/07/01 01:35:10;;;;;;;2.78;1.88;;;21.80;94.60;;;;;;5040663;28;20200;-25
2023/07/01 01:37:45;;;;;;;5.30;1.85;;;21.70;94.70;;;;;;5045884;28;20211;-25
2023/07/01 01:40:27;;;;;;;4.30;2.22;;;21.70;94.80;;;;;;5046168;28;20207;-25
2023/07/01 01:43:08;;;;;;;4.65;2.10;;;21.70;94.80;;;;;;5044645;28;20227;-25
2023/07/01 01:45:40;;;;;;;2.60;1.48;;;21.70;94.90;;;;;;5045903;28;20200;-25
2023/07/01 01:48:09;;;;;;;4.20;1.70;;;21.70;94.80;;;;;;5046101;28;20204;-25
2023/07/01 01:50:39;;;;;;;3.20;1.70;;;21.60;94.90;;;;;;5044486;28;20196;-25
2023/07/01 01:53:12;;;;;;;2.25;1.30;;;21.60;95.00;;;;;;5046326;28;20203;-25
2023/07/01 01:55:41;;;;;;;1.85;1.52;;;21.60;95.00;;;;;;5044022;28;20295;-25
2023/07/01 01:58:10;;;;;;;3.08;1.90;;;21.60;94.90;;;;;;5044123;28;20594;-25
2023/07/01 02:00:38;;;;;;;2.30;1.60;;;21.50;95.00;;;;;;5044091;28;20219;-25
2023/07/01 02:03:06;;;;;;;2.58;1.63;;;21.50;94.90;;;;;;5044273;28;20597;-25
2023/07/01 02:05:34;;;;;;;3.17;1.83;;;21.40;95.50;;;;;;5060680;28;20204;-25
2023/07/01 02:08:06;;;;;;;2.65;1.77;;;21.40;95.30;;;;;;5044342;28;20189;-25
2023/07/01 02:10:35;;;;;;;3.72;1.90;;;21.40;95.20;;;;;;5045346;28;20216;-25
2023/07/01 02:13:03;;;;;;;1.90;1.38;;;21.40;95.30;;;;;;5045172;28;20200;-25
2023/07/01 02:15:30;;;;;;;3.05;1.70;;;21.40;95.40;;;;;;5043445;28;20192;-25
2023/07/01 02:17:57;;;;;;;3.67;1.90;;;21.30;95.30;;;;;;5043555;28;20258;-25
2023/07/01 02:20:25;;;;;;;2.45;1.55;;;21.30;95.50;;;;;;5044908;28;20223;-25
2023/07/01 02:22:52;;;;;;;3.00;1.52;;;21.30;95.90;;;;;;5045075;28;20243;-25
2023/07/01 02:25:19;;;;;;;2.78;1.35;;;21.30;95.50;;;;;;5043643;28;20223;-25
2023/07/01 02:27:46;;;;;;;2.90;1.55;;;21.30;95.70;;;;;;5043606;28;20311;-25
2023/07/01 02:30:14;;;;;;;3.05;1.60;;;21.30;96.10;;;;;;5044813;28;20242;-25
2023/07/01 02:32:41;;;;;;;2.13;1.20;;;21.30;95.90;;;;;;5043641;28;20216;-25
2023/07/01 02:35:11;;;;;;;2.70;1.40;;;21.30;96.20;;;;;;5044787;28;20200;-25
2023/07/01 02:37:40;;;;;;;2.88;1.30;;;21.20;96.20;;;;;;5045157;28;20518;-25
2023/07/01 02:40:08;;;;;;;2.78;1.65;;;21.20;96.20;;;;;;5042988;28;20323;-25
2023/07/01 02:42:39;;;;;;;2.83;1.38;;;21.20;96.50;;;;;;5045382;28;20609;-25
2023/07/01 02:45:09;;;;;;;2.22;1.50;;;21.20;96.40;;;;;;5043768;28;20646;-25
2023/07/01 02:47:36;;;;;;;4.15;1.30;;;21.10;96.30;;;;;;5044391;28;20686;-25
2023/07/01 02:50:05;;;;;;;1.73;1.42;;;21.10;96.90;;;;;;5042956;28;20227;-25
2023/07/01 02:52:32;;;;;;;2.60;1.60;;;21.10;96.60;;;;;;5044804;28;20197;-25
2023/07/01 02:55:02;;;;;;;1.85;1.50;;;21.10;96.70;;;;;;5042874;28;20195;-25
2023/07/01 02:57:29;;;;;;;2.13;1.30;;;21.00;96.60;;;;;;5043192;28;20630;-25
2023/07/01 02:59:57;;;;;;;3.17;1.70;;;21.00;96.50;;;;;;5044218;28;20202;-25
2023/07/01 03:02:24;;;;;;;1.63;1.50;;;21.00;96.80;;;;;;5044677;28;20627;-25
2023/07/01 03:04:51;;;;;;;2.75;1.85;;;21.00;96.90;;;;;;5026666;28;20555;-25
2023/07/01 03:07:18;;;;;;;3.47;1.60;;;21.00;96.90;;;;;;5044380;28;20243;-25
2023/07/01 03:09:48;;;;;;;3.08;1.90;;;21.00;96.90;;;;;;5042566;28;20555;-25
2023/07/01 03:12:15;;;;;;;2.72;1.75;;;20.90;97.00;;;;;;5044237;28;20257;-24
2023/07/01 03:14:43;;;;;;;1.70;1.42;;;20.90;97.30;;;;;;5042747;28;20204;-26
2023/07/01 03:17:12;;;;;;;2.50;1.65;;;20.90;97.30;;;;;;5042388;28;20204;-25
2023/07/01 03:19:41;;;;;;;1.60;1.48;;;20.90;97.20;;;;;;5043901;28;20291;-25
2023/07/01 03:22:11;;;;;;;3.53;1.50;;;20.90;97.60;;;;;;5044303;28;20228;-25
2023/07/01 03:24:42;;;;;;;2.30;1.60;;;20.80;97.30;;;;;;5043995;28;20200;-25
2023/07/01 03:27:10;;;;;;;2.10;1.50;;;20.80;97.40;;;;;;5043754;28;20992;-26
2023/07/01 03:29:40;;;;;;;1.88;1.50;;;20.80;97.20;;;;;;5041927;28;20252;-26
2023/07/01 03:32:07;;;;;;;3.15;1.80;;;20.80;97.30;;;;;;5043732;28;20196;-27
2023/07/01 03:34:35;;;;;;;2.78;1.58;;;20.70;97.30;;;;;;5043884;28;20738;-26
2023/07/01 03:37:09;;;;;;;3.13;1.50;;;20.70;97.50;;;;;;5044128;28;20200;-31
2023/07/01 03:39:39;;;;;;;2.40;1.60;;;20.70;97.40;;;;;;5043544;28;20208;-25
2023/07/01 03:42:07;;;;;;;3.00;1.60;;;20.70;97.40;;;;;;5042346;28;20706;-30
2023/07/01 03:44:36;;;;;;;2.60;1.50;;;20.60;97.40;;;;;;5042333;28;20208;-25
2023/07/01 03:47:13;;;;;;;2.65;1.60;;;20.60;97.70;;;;;;5041973;28;20207;-24
2023/07/01 03:49:42;;;;;;;1.63;1.20;;;20.60;97.60;;;;;;5043301;28;20594;-25
2023/07/01 03:52:10;;;;;;;2.80;1.48;;;20.60;98.00;;;;;;5041737;28;21035;-25
2023/07/01 03:54:37;;;;;;;2.97;1.30;;;20.60;97.70;;;;;;5043570;28;20677;-25
2023/07/01 03:57:04;;;;;;;4.38;1.60;;;20.60;97.80;;;;;;5043335;28;20200;-25
2023/07/01 03:59:32;;;;;;;3.20;1.40;;;20.50;98.00;;;;;;5042371;28;20218;-25
2023/07/01 04:02:01;;;;;;;2.55;1.10;;;20.50;97.80;;;;;;5041763;28;20210;-25
2023/07/01 04:04:28;;;;;;;2.38;1.10;;;20.50;97.90;;;;;;5041370;28;20315;-25
2023/07/01 04:06:57;;;;;;;2.17;1.42;;;20.50;97.90;;;;;;5043027;28;20201;-25
2023/07/01 04:09:26;;;;;;;3.22;1.40;;;20.50;97.90;;;;;;5042580;28;20867;-25
2023/07/01 04:11:54;;;;;;;2.58;1.15;;;20.50;98.20;;;;;;5041294;28;20361;-25
2023/07/01 04:14:24;;;;;;;2.53;1.17;;;20.50;98.00;;;;;;5041165;28;20204;-25
2023/07/01 04:16:53;;;;;;;1.27;1.00;;;20.50;98.00;;;;;;5042952;28;20192;-25
2023/07/01 04:19:21;;;;;;;2.17;1.15;;;20.50;98.20;;;;;;5043223;28;20204;-25
2023/07/01 04:21:48;;;;;;;2.40;1.25;;;20.50;98.10;;;;;;5041405;28;20689;-26
2023/07/01 04:24:20;;;;;;;1.77;1.40;;;20.50;98.30;;;;;;5041153;28;20196;-25
2023/07/01 04:26:48;;;;;;;1.80;1.23;;;20.50;98.40;;;;;;5041192;28;20207;-25
2023/07/01 04:29:17;;;;;;;3.00;1.67;;;20.50;98.30;;;;;;5043761;28;20223;-25
2023/07/01 04:31:47;;;;;;;3.78;1.77;;;20.50;98.30;;;;;;5042353;28;20208;-25
2023/07/01 04:34:14;;;;;;;1.33;1.10;;;20.40;99.00;;;;;;5042158;28;20309;-25
2023/07/01 04:36:46;;;;;;;1.67;1.20;;;20.40;98.40;;;;;;5042929;28;20204;-25
2023/07/01 04:39:14;;;;;;;2.47;1.23;;;20.40;98.80;;;;;;5043610;28;20226;-25
2023/07/01 04:41:44;;;;;;;1.92;1.30;;;20.40;98.40;;;;;;5043979;28;20219;-25
2023/07/01 04:44:13;;;;;;;3.17;1.55;;;20.30;98.50;;;;;;5058258;28;20709;-25
2023/07/01 04:46:41;;;;;;;1.65;1.35;;;20.30;98.60;;;;;;5041816;28;20620;-25
2023/07/01 04:49:10;;;;;;;2.58;1.38;;;20.30;98.60;;;;;;5041782;28;20701;-25
2023/07/01 04:51:41;;;;;;;2.00;1.50;;;20.30;98.90;;;;;;5075634;28;20630;-25
2023/07/01 04:54:08;;;;;;;1.77;1.20;;;20.20;98.70;;;;;;5041903;28;20200;-25
2023/07/01 04:56:36;;;;;;;1.38;1.20;;;20.20;98.80;;;;;;5043485;28;20244;-33
2023/07/01 04:59:05;;;;;;;2.40;1.23;;;20.20;98.90;;;;;;5043044;28;20200;-33
2023/07/01 05:01:33;;;;;;;1.38;1.10;;;20.20;98.90;;;;;;5041771;28;20204;-33
2023/07/01 05:04:00;;;;;;;2.42;1.60;;;20.20;99.60;;;;;;5043495;28;20204;-33
2023/07/01 05:06:27;;;;;;;2.22;1.30;;;20.20;99.00;;;;;;5041651;28;20387;-33
2023/07/01 05:08:57;;;;;;;2.42;1.40;;;20.20;99.00;;;;;;5043238;28;20200;-33
2023/07/01 05:11:25;;;;;;;1.38;1.13;;;20.20;99.10;;;;;;5044871;28;20214;-33
2023/07/01 05:13:53;;;;;;;1.90;1.20;;;20.20;99.10;;;;;;5045464;28;20823;-33
2023/07/01 05:16:22;;;;;;;2.25;1.27;;;20.20;99.20;;;;;;5046935;28;20200;-33
2023/07/01 05:18:49;;;;;;;1.33;1.15;;;20.20;99.30;;;;;;5046648;28;20200;-33
2023/07/01 05:21:19;;;;;;;0.82;0.82;;;20.20;99.30;;;;;;5047386;28;20222;-33
2023/07/01 05:23:51;;;;;;;1.65;1.10;;;20.20;99.30;;;;;;5045048;28;20236;-33
2023/07/01 05:26:20;;;;;;;1.67;1.10;;;20.20;99.30;;;;;;5045130;28;20208;-33
2023/07/01 05:28:47;;;;;;;1.45;0.93;;;20.20;99.60;;;;;;5045120;28;20257;-33
2023/07/01 05:31:17;;;;;;;1.63;0.90;;;20.20;99.40;;;;;;5045032;28;20232;-33
2023/07/01 05:33:47;;;;;;;1.25;1.15;;;20.20;99.50;;;;;;5046786;28;20208;-33
2023/07/01 05:36:14;;;;;;;1.73;0.85;;;20.30;99.40;;;;;;5046967;28;20297;-33
2023/07/01 05:38:41;;;;;;;2.03;0.82;;;20.30;99.60;;;;;;5046444;28;20204;-33
2023/07/01 05:41:10;;;;;;;1.45;0.85;;;20.30;99.50;;;;;;5045449;28;20384;-33
2023/07/01 05:43:41;;;;;;;1.17;0.93;;;20.30;99.60;;;;;;5046088;28;20617;-33
2023/07/01 05:46:10;;;;;;;1.08;0.60;;;20.30;99.60;;;;;;5046274;28;20637;-33
2023/07/01 05:48:43;;;;;;;1.10;0.73;;;20.30;99.80;;;;;;5046836;28;20204;-33
2023/07/01 05:51:13;;;;;;;0.75;0.75;;;20.30;99.70;;;;;;5045717;28;20227;-33
2023/07/01 05:53:41;;;;;;;4.03;0.65;;;20.30;99.90;;;;;;5046227;28;20224;-33
2023/07/01 05:56:08;;;;;;;0.98;0.70;;;20.30;99.90;;;;;;5046611;28;20196;-33
2023/07/01 05:58:35;;;;;;;0.80;0.60;;;20.30;99.90;;;;;;5046336;28;20204;-33
2023/07/01 06:01:03;;;;;;;1.17;0.75;;;20.30;99.90;;;;;;5046297;28;20675;-33
2023/07/01 06:03:30;;;;;;;1.15;0.70;;;20.30;99.90;;;;;;5046058;28;20282;-33
2023/07/01 06:05:57;;;;;;;0.75;0.60;;;20.40;99.90;;;;;;5046259;28;20211;-33
2023/07/01 06:08:27;;;;;;;1.42;0.60;;;20.40;99.90;;;;;;5045003;28;20720;-33
2023/07/01 06:10:54;;;;;;;2.08;0.60;;;20.40;99.90;;;;;;5046352;28;20239;-34
2023/07/01 06:13:21;;;;;;;0.70;0.60;;;20.40;99.90;;;;;;5044410;28;20573;-33
2023/07/01 06:15:51;;;;;;;1.40;0.57;;;20.40;99.90;;;;;;5044330;28;20287;-33
2023/07/01 06:18:21;;;;;;;1.42;0.60;;;20.40;99.90;;;;;;5044665;28;20257;-33
2023/07/01 06:20:48;;;;;;;1.05;0.70;;;20.40;99.90;;;;;;5046030;28;20226;-32
2023/07/01 06:23:17;;;;;;;0.60;0.60;;;20.40;99.90;;;;;;5043565;28;20847;-33
2023/07/01 06:25:50;;;;;;;0.60;0.60;;;20.40;99.90;;;;;;5044364;28;20596;-33
2023/07/01 06:28:17;;;;;;;0.70;0.50;;;20.50;99.90;;;;;;5043885;28;20200;-33
2023/07/01 06:30:46;;;;;;;0.40;0.40;;;20.50;99.90;;;;;;5044218;28;20558;-33
2023/07/01 06:33:16;;;;;;;1.75;0.70;;;20.50;99.90;;;;;;5045888;28;20299;-33
2023/07/01 06:35:45;;;;;;;0.63;0.60;;;20.60;99.90;;;;;;5044369;28;20200;-33
2023/07/01 06:38:14;;;;;;;1.70;0.68;;;20.60;99.90;;;;;;5045575;28;20347;-33
2023/07/01 06:40:46;;;;;;;1.35;0.70;;;20.60;99.90;;;;;;5045325;28;20262;-33
2023/07/01 06:43:16;;;;;;;1.98;0.70;;;20.60;99.90;;;;;;5043411;28;20200;-33
2023/07/01 06:45:46;;;;;;;1.98;0.73;;;20.60;99.90;;;;;;5045776;28;20204;-33
2023/07/01 06:48:18;;;;;;;1.80;0.70;;;20.60;99.90;;;;;;5060230;28;20225;-33
2023/07/01 06:50:49;;;;;;;1.42;0.63;;;20.70;99.90;;;;;;5045173;28;20259;-33
2023/07/01 06:53:20;;;;;;;1.75;0.70;;;20.70;99.90;;;;;;5045293;28;20199;-33
2023/07/01 06:55:47;;;;;;;5.55;0.70;;;20.70;99.90;;;;;;5044745;28;20673;-33
2023/07/01 06:58:17;;;;;;;1.88;0.70;;;20.70;99.90;;;;;;5043671;28;20200;-33
2023/07/01 07:00:46;;;;;;;0.75;0.50;;;20.70;99.90;;;;;;5045233;28;20638;-33
2023/07/01 07:03:16;;;;;;;1.00;0.47;;;20.70;99.90;;;;;;5043746;28;20565;-33
2023/07/01 07:05:46;;;;;;;0.50;0.50;;;20.70;99.90;;;;;;5045193;28;20720;-33
2023/07/01 07:08:13;;;;;;;1.08;0.45;;;20.80;99.90;;;;;;5043392;28;20212;-35
2023/07/01 07:10:45;;;;;;;0.73;0.50;;;20.80;99.90;;;;;;5044696;28;20289;-33
2023/07/01 07:13:16;;;;;;;1.98;0.43;;;20.80;99.90;;;;;;5044911;28;20204;-33
2023/07/01 07:15:44;;;;;;;0.75;0.50;;;20.80;99.90;;;;;;5044799;28;20233;-33
2023/07/01 07:18:13;;;;;;;1.40;0.60;;;20.80;99.90;;;;;;5043050;28;20406;-33
2023/07/01 07:20:44;;;;;;;1.65;0.50;;;20.80;99.90;;;;;;5044729;28;20670;-33
2023/07/01 07:23:16;;;;;;;0.80;0.30;;;20.80;99.90;;;;;;5043093;28;20247;-32
2023/07/01 07:25:43;;;;;;;0.77;0.55;;;20.90;99.90;;;;;;5044955;28;20219;-33
2023/07/01 07:28:10;;;;;;;0.60;0.52;;;20.80;99.90;;;;;;5044548;28;20764;-33
2023/07/01 07:30:38;;;;;;;2.78;0.52;;;20.90;99.90;;;;;;5043119;28;20266;-33
2023/07/01 07:33:08;;;;;;;0.82;0.40;;;20.90;99.90;;;;;;5042756;28;20200;-33
2023/07/01 07:35:37;;;;;;;0.63;0.30;;;20.90;99.90;;;;;;5044354;28;20203;-33
2023/07/01 07:38:06;;;;;;;0.47;0.30;;;20.90;99.90;;;;;;5044260;28;20204;-33
2023/07/01 07:40:34;;;;;;;0.32;0.32;;;21.00;99.90;;;;;;5043924;28;20214;-32
2023/07/01 07:43:09;;;;;;;5.72;0.98;;;21.00;99.90;;;;;;5042470;28;20212;-33
2023/07/01 07:45:36;;;;;;;1.80;0.50;;;21.00;99.90;;;;;;5044345;28;20291;-32
2023/07/01 07:48:04;;;;;;;0.32;0.32;;;21.10;99.90;;;;;;5042479;28;20684;-32
2023/07/01 07:50:37;;;;;;;0.50;0.40;;;21.10;99.90;;;;;;5042229;28;20574;-33
2023/07/01 07:53:04;;;;;;;0.43;0.43;;;21.10;99.90;;;;;;5043270;28;20200;-33
2023/07/01 07:55:40;;;;;;;0.38;0.30;;;21.10;99.90;;;;;;5043741;28;20552;-33
2023/07/01 07:58:07;;;;;;;1.38;0.50;;;21.20;99.90;;;;;;5044015;28;20612;-33
2023/07/01 08:00:39;;;;;;;1.13;0.52;;;21.20;99.90;;;;;;5042796;28;20677;-30
2023/07/01 08:03:08;;;;;;;0.30;0.30;;;21.20;99.90;;;;;;5041129;28;20207;-31
2023/07/01 08:05:36;;;;;;;0.35;0.25;;;21.20;99.90;;;;;;5025341;28;20228;-30
2023/07/01 08:08:05;;;;;;;0.32;0.30;;;21.20;99.90;;;;;;5041767;28;20274;-30
2023/07/01 08:10:32;;;;;;;1.05;0.28;;;21.20;99.90;;;;;;5043589;28;20230;-30
2023/07/01 08:13:02;;;;;;;0.98;0.40;;;21.20;99.90;;;;;;5043594;28;20197;-30
2023/07/01 08:15:33;;;;;;;0.50;0.40;;;21.20;99.90;;;;;;5043364;28;20223;-30
2023/07/01 08:18:01;;;;;;;0.70;0.38;;;21.20;99.90;;;;;;5058538;28;20258;-30
2023/07/01 08:20:33;;;;;;;1.88;0.20;;;21.20;99.90;;;;;;5041755;28;20232;-30
2023/07/01 08:23:02;;;;;;;0.47;0.28;;;21.20;99.90;;;;;;5043344;28;20232;-30
2023/07/01 08:25:32;;;;;;;1.95;0.70;;;21.20;99.90;;;;;;5041565;28;20214;-32
2023/07/01 08:28:02;;;;;;;1.10;0.70;;;21.20;99.90;;;;;;5042992;28;20283;-32
2023/07/01 08:30:31;;;;;;;0.47;0.40;;;21.30;99.90;;;;;;5041360;28;20330;-32
2023/07/01 08:33:01;;;;;;;1.50;0.50;;;21.30;99.90;;;;;;5043123;28;20192;-32
2023/07/01 08:35:31;;;;;;;1.00;0.40;;;21.40;99.90;;;;;;5041377;28;20207;-32
2023/07/01 08:38:03;;;;;;;2.72;0.80;;;21.40;99.90;;;;;;5041260;28;20545;-32
2023/07/01 08:40:35;;;;;;;0.43;0.43;;;21.50;99.90;;;;;;5041273;28;20204;-32
2023/07/01 08:43:06;;;;;;;0.68;0.43;;;21.60;99.90;;;;;;5040839;28;20440;-32
2023/07/01 08:45:38;;;;;;;2.63;0.50;;;21.60;99.90;;;;;;5046920;28;20301;-32
2023/07/01 08:48:09;;;;;;;0.30;0.30;;;21.70;99.90;;;;;;5047903;28;20377;-32
2023/07/01 08:51:02;;;;;;;1.35;0.68;;;21.70;99.90;;;;;;5049313;28;20297;-32
2023/07/01 08:53:32;;;;;;;0.60;0.50;;;21.70;99.90;;;;;;5020995;28;20200;-32
2023/07/01 08:56:04;;;;;;;1.73;0.68;;;21.80;99.90;;;;;;5031678;28;20286;-32
2023/07/01 08:58:33;;;;;;;1.45;0.52;;;21.80;99.90;;;;;;5049605;28;20200;-32
2023/07/01 09:01:05;;;;;;;0.95;0.68;;;21.80;99.90;;;;;;5049517;28;20207;-32
2023/07/01 09:03:36;;;;;;;3.33;0.90;;;21.90;99.90;;;;;;5048188;28;20207;-32
2023/07/01 09:06:07;;;;;;;2.80;0.60;;;21.90;99.90;;;;;;5064222;28;20227;-32
2023/07/01 09:08:40;;;;;;;0.73;0.73;;;21.90;99.90;;;;;;5049586;28;20200;-32
2023/07/01 09:11:14;;;;;;;1.98;1.00;;;22.00;99.90;;;;;;5049595;28;20219;-32
2023/07/01 09:13:42;;;;;;;1.92;0.90;;;22.00;99.90;;;;;;5049486;28;20831;-32
2023/07/01 09:16:28;;;;;;;2.13;0.85;;;22.10;99.90;;;;;;5064509;28;20242;-33
2023/07/01 09:19:21;;;;;;;1.05;0.95;;;22.10;99.90;;;;;;5047551;28;20215;-32
2023/07/01 09:21:48;;;;;;;1.30;1.20;;;22.10;99.90;;;;;;5047943;28;20275;-32
2023/07/01 09:24:39;;;;;;;2.35;1.00;;;22.10;99.90;;;;;;5049220;28;20666;-32
2023/07/01 09:27:06;;;;;;;3.58;1.27;;;22.20;99.90;;;;;;5049133;28;20365;-32
2023/07/01 09:29:40;;;;;;;1.65;0.90;;;22.20;99.90;;;;;;5047827;28;20787;-32
2023/07/01 09:32:24;;;;;;;1.08;0.85;;;22.20;99.90;;;;;;5049212;28;20429;-32
2023/07/01 09:35:00;;;;;;;1.02;1.00;;;22.20;99.90;;;;;;5049310;28;20955;-32
2023/07/01 09:37:30;;;;;;;3.42;1.00;;;22.30;99.90;;;;;;5048939;28;20227;-32
2023/07/01 09:40:24;;;;;;;1.23;0.90;;;22.40;99.90;;;;;;5047379;28;20192;-33
2023/07/01 09:42:55;;;;;;;2.47;1.10;;;22.50;99.90;;;;;;5047326;28;20227;-32
2023/07/01 09:45:24;;;;;;;1.02;0.93;;;22.60;99.90;;;;;;5049106;28;20196;-32
2023/07/01 09:47:54;;;;;;;1.00;0.90;;;22.70;99.90;;;;;;5047629;28;20231;-32
2023/07/01 09:50:30;;;;;;;1.17;1.08;;;22.70;99.90;;;;;;5049064;28;20200;-32
2023/07/01 09:53:01;;;;;;;5.30;1.10;;;22.80;99.90;;;;;;5049172;28;20204;-32
2023/07/01 09:55:32;;;;;;;1.30;0.82;;;22.90;99.90;;;;;;5048986;28;20204;-32
2023/07/01 09:58:02;;;;;;;1.10;1.00;;;23.00;99.90;;;;;;5044754;28;20207;-32
2023/07/01 10:00:30;;;;;;;1.25;0.88;;;23.00;99.90;;;;;;5045100;28;20617;-32
2023/07/01 10:03:02;;;;;;;1.40;1.00;;;23.10;99.90;;;;;;5045448;28;20219;-32
2023/07/01 10:05:33;;;;;;;1.88;1.00;;;23.20;99.90;;;;;;5045525;28;20204;-32
2023/07/01 10:08:01;;;;;;;2.20;1.00;;;23.30;99.90;;;;;;5046992;28;20565;-33
2023/07/01 10:10:29;;;;;;;0.85;0.80;;;23.30;99.90;;;;;;5046763;28;20204;-32
2023/07/01 10:13:01;;;;;;;1.17;0.90;;;23.40;99.90;;;;;;5047134;28;20196;-32
2023/07/01 10:15:33;;;;;;;0.75;0.60;;;23.40;99.90;;;;;;5046853;28;20210;-32
2023/07/01 10:18:03;;;;;;;2.00;0.82;;;23.40;99.90;;;;;;5046984;28;20204;-33
2023/07/01 10:20:32;;;;;;;1.65;0.80;;;23.50;99.90;;;;;;5046755;28;20223;-33
2023/07/01 10:23:01;;;;;;;1.38;0.80;;;23.50;99.90;;;;;;5046186;28;20329;-32
2023/07/01 10:25:36;;;;;;;1.50;0.63;;;23.50;99.90;;;;;;5046695;28;20200;-32
2023/07/01 10:28:13;;;;;;;1.52;0.90;;;23.50;99.90;;;;;;5061142;28;20207;-33
2023/07/01 10:30:46;;;;;;;1.33;0.70;;;23.60;99.90;;;;;;5046160;28;20733;-32
2023/07/01 10:33:46;;;;;;;1.98;0.85;;;23.70;99.90;;;;;;5045016;28;20250;-24
2023/07/01 10:36:17;;;;;;;1.23;0.77;;;23.80;99.90;;;;;;5034470;28;20196;-24
2023/07/01 10:38:50;;;;;;;2.55;1.00;;;23.80;99.90;;;;;;5046326;28;20191;-24
2023/07/01 10:41:51;;;;;;;2.25;0.90;;;23.80;99.90;;;;;;5045007;28;20216;-23
2023/07/01 10:44:23;;;;;;;0.90;0.90;;;23.90;99.90;;;;;;5046399;28;20212;-24
2023/07/01 10:47:16;;;;;;;1.30;1.00;;;23.80;99.90;;;;;;5046266;28;20212;-24
2023/07/01 10:50:00;;;;;;;3.53;1.10;;;23.90;99.90;;;;;;5046521;28;20231;-24
2023/07/01 10:52:29;;;;;;;1.70;1.00;;;23.90;99.90;;;;;;5044340;28;20242;-24
2023/07/01 10:55:00;;;;;;;2.28;1.23;;;23.90;99.90;;;;;;5046416;28;20606;-24
2023/07/01 10:57:32;;;;;;;1.92;1.30;;;24.00;99.90;;;;;;5045946;28;20208;-25
2023/07/01 11:00:37;;;;;;;1.80;1.13;;;24.00;99.90;;;;;;5044463;28;20243;-24
2023/07/01 11:03:32;;;;;;;1.50;1.10;;;24.10;99.90;;;;;;5043878;28;20192;-24
2023/07/01 11:06:04;;;;;;;4.80;1.50;;;24.10;99.90;;;;;;5036804;28;20295;-25
2023/07/01 11:08:51;;;;;;;1.35;1.17;;;24.20;99.90;;;;;;5045883;28;20208;-25
2023/07/01 11:11:21;;;;;;;5.63;1.50;;;24.20;99.90;;;;;;5045818;28;20549;-25
2023/07/01 11:14:08;;;;;;;5.22;1.67;;;24.20;99.90;;;;;;5044101;28;20197;-25
2023/07/01 11:16:38;;;;;;;5.88;1.63;;;24.20;99.90;;;;;;5045947;28;20697;-26
2023/07/01 11:19:09;;;;;;;3.28;1.48;;;24.30;99.90;;;;;;5045491;28;20578;-25
2023/07/01 11:21:37;;;;;;;4.68;1.30;;;24.30;99.90;;;;;;5043718;28;20209;-26
2023/07/01 11:24:09;;;;;;;3.35;1.52;;;24.20;99.90;;;;;;5043829;28;20765;-25
2023/07/01 11:26:40;;;;;;;3.35;1.73;;;24.20;99.90;;;;;;5045761;28;20208;-24
2023/07/01 11:29:18;;;;;;;3.33;1.42;;;24.20;99.90;;;;;;5043649;28;20212;-33
2023/07/01 11:31:55;;;;;;;3.65;1.17;;;24.20;99.90;;;;;;5045139;28;20593;-33
2023/07/01 11:34:25;;;;;;;5.43;1.35;;;24.20;99.90;;;;;;5045161;28;20631;-33
2023/07/01 11:36:56;;;;;;;2.78;1.70;;;24.20;99.90;;;;;;5043977;28;20196;-33
2023/07/01 11:39:24;;;;;;;5.53;1.70;;;24.20;99.90;;;;;;5045455;28;20308;-25
2023/07/01 11:42:02;;;;;;;2.53;1.60;;;24.20;99.90;;;;;;5045836;28;20559;-25
2023/07/01 11:44:35;;;;;;;5.93;1.65;;;24.20;99.90;;;;;;5044040;28;20652;-25
2023/07/01 11:47:09;;;;;;;7.45;1.90;;;24.30;99.90;;;;;;5044903;28;20237;-25
2023/07/01 11:49:38;;;;;;;2.92;1.40;;;24.30;99.90;;;;;;5043742;28;20203;-24
2023/07/01 11:52:06;;;;;;;3.22;1.50;;;24.40;99.90;;;;;;5044672;28;20228;-24
2023/07/01 11:54:39;;;;;;;2.08;1.33;;;24.40;99.90;;;;;;5044834;28;20208;-32
2023/07/01 11:57:14;;;;;;;2.65;1.15;;;24.50;99.90;;;;;;5044851;28;20617;-33
2023/07/01 11:59:46;;;;;;;2.95;1.52;;;24.60;99.90;;;;;;5045046;28;20207;-33
2023/07/01 12:02:15;;;;;;;2.10;1.30;;;24.60;99.90;;;;;;5045165;28;20206;-33
2023/07/01 12:04:42;;;;;;;4.05;1.60;;;24.70;99.90;;;;;;5044543;28;20208;-33
2023/07/01 12:07:16;;;;;;;3.80;1.60;;;24.80;99.90;;;;;;5044383;28;20200;-33
2023/07/01 12:09:45;;;;;;;3.78;1.52;;;24.80;99.90;;;;;;5059625;28;20208;-33
2023/07/01 12:12:16;;;;;;;3.28;1.42;;;24.90;99.90;;;;;;5044330;28;20216;-25
2023/07/01 12:14:48;;;;;;;1.60;1.30;;;24.90;99.90;;;;;;5059128;28;20188;-25
2023/07/01 12:17:30;;;;;;;2.92;1.30;;;24.90;99.90;;;;;;5044719;28;20196;-25
2023/07/01 12:20:05;;;;;;;2.28;1.20;;;25.00;99.90;;;;;;5058223;28;20311;-25
2023/07/01 12:22:35;;;;;;;3.22;1.30;;;25.00;99.90;;;;;;5042423;28;20352;-25
2023/07/01 12:25:05;;;;;;;2.20;1.30;;;25.00;99.90;;;;;;5043775;28;20216;-25
2023/07/01 12:27:33;;;;;;;1.85;1.27;;;25.00;99.90;;;;;;5044197;28;20570;-25
2023/07/01 12:30:04;;;;;;;3.45;1.25;;;25.00;99.90;;;;;;5044120;28;20212;-25
2023/07/01 12:32:31;;;;;;;2.65;1.30;;;25.10;99.90;;;;;;5043204;28;20694;-25
2023/07/01 12:34:58;;;;;;;2.28;1.13;;;25.10;99.90;;;;;;5059250;28;20854;-25
2023/07/01 12:37:28;;;;;;;3.90;1.20;;;25.20;99.90;;;;;;5043134;28;20196;-25
2023/07/01 12:39:59;;;;;;;4.25;1.90;;;25.20;99.90;;;;;;5044551;28;20204;-25
2023/07/01 12:42:26;;;;;;;5.10;1.75;;;25.20;99.90;;;;;;5044203;28;20207;-25
2023/07/01 12:44:56;;;;;;;3.30;1.25;;;25.30;99.90;;;;;;5044234;28;20496;-25
2023/07/01 12:47:23;;;;;;;3.03;1.60;;;25.30;99.90;;;;;;5043884;28;20690;-33
2023/07/01 12:49:52;;;;;;;2.25;1.60;;;25.20;99.90;;;;;;5044104;28;20295;-33
2023/07/01 12:52:22;;;;;;;3.33;1.20;;;25.20;99.90;;;;;;5042332;28;20227;-33
2023/07/01 12:54:49;;;;;;;1.92;0.80;;;25.10;99.90;;;;;;5043724;28;20313;-33
2023/07/01 12:57:21;;;;;;;1.05;0.70;;;25.10;99.90;;;;;;5044280;28;20228;-33
2023/07/01 12:59:54;;;;;;;1.02;0.90;;;25.10;99.90;;;;;;5043894;28;20669;-31
2023/07/01 13:02:25;;;;;;;2.55;1.00;;;25.00;99.90;;;;;;5058874;28;20647;-33
2023/07/01 13:05:03;;;;;;;3.03;1.00;;;24.90;99.90;;;;;;5044021;28;20299;-34
2023/07/01 13:07:32;;;;;;;1.67;1.02;;;24.90;99.90;;;;;;5043663;28;20204;-33